Lake Santeetlah, North Carolina
Current Conditions -  °F | °C
As of 11:55 AM on Wednesday 22 Oct 2014 (Local Time) from KRHP Reporting Station
Clear Clear  
Wind Chill: 57°   Ceiling: Unl
Heat Index: 57°   Visibility: 10mi
Dew Point: 38°   Wind: 6mph
Humidity: 49%   Direction: 350°N
Pressure: 30.16"   Gusts: NA
Location:  35.3435°N, 83.8508°W
Report Text: KRHP 221555Z AUTO 35005KT 10SM CLR 14/03 A3016 RMK AO2 T01370031
Loading
Personal Weather Stations






























Interactive Weather Map
Tropical Storm Tracking
New forecast layout! Learn more

10-Day Weather Forecast

Advertisements
Track Severe Weather on mobile